Cuyahoga County Airport Cleveland US
ICAO: KCGF
IATA: CGF
Category: Medium
Scheduled Services: No

Elevation: 879 ft
TransAlt. 18000 ft.

Airport Communications:
CLEVELAND APP/DEP:125.35
CTAF:118.5
GND/CLNC DEL:121.85
COUNTY TWR:118.5
UNICOM:122.95

KCGF Zoom In..

If you have problems with the map follow the link
https://www.worldairports.se/pages/airport.php?
ICAO=KCGF

Runways:

(A) RW 06 length 5102 ft width 100 ft
---- / hdg 57

(B) RW 24 length 5102 ft width 100 ft
ILS 111.10 / hdg 237

Location; KCGF
Day. 20 / Time. 20.45 Zulu
* Altimeter: 29.85
* Temperature: 03° c. 37.4°f.
* Wind from: 160° Speed 13 kn with Gusts up to 25 kn.
Dewpoint: 01° c.
Visibility: 8 Statute Miles.
Clouds: Broken 800 ft.
Clouds: Overcast 1200 ft.

KCGF 202045Z 16013G25KT 8SM BKN008 OVC012 03/01 A2985


Wind From 160°
Speed 13 kn.

 
 
jpsmedia.com for Web Design worldairports.se 2019   terms of use